sensor_id;sensor_type;location;lat;lon;timestamp;pressure;altitude;pressure_sealevel;temperature;humidity
25080;BME280;13071;48.868;9.996;2023-11-22T00:00:11;96742.91;;;5.00;100.00
25080;BME280;13071;48.868;9.996;2023-11-22T00:02:38;96743.63;;;5.05;100.00
25080;BME280;13071;48.868;9.996;2023-11-22T00:05:06;96745.38;;;4.96;100.00
25080;BME280;13071;48.868;9.996;2023-11-22T00:07:34;96742.16;;;4.75;100.00
25080;BME280;13071;48.868;9.996;2023-11-22T00:10:04;96736.25;;;4.97;100.00
25080;BME280;13071;48.868;9.996;2023-11-22T00:12:31;96750.88;;;4.86;100.00
25080;BME280;13071;48.868;9.996;2023-11-22T00:15:02;96750.16;;;4.81;100.00
25080;BME280;13071;48.868;9.996;2023-11-22T00:17:30;96756.59;;;4.61;100.00
25080;BME280;13071;48.868;9.996;2023-11-22T00:19:57;96758.72;;;4.83;100.00
25080;BME280;13071;48.868;9.996;2023-11-22T00:22:25;96750.44;;;4.79;100.00
25080;BME280;13071;48.868;9.996;2023-11-22T00:24:52;96757.03;;;4.68;100.00
25080;BME280;13071;48.868;9.996;2023-11-22T00:27:20;96752.09;;;4.56;100.00
25080;BME280;13071;48.868;9.996;2023-11-22T00:29:47;96761.66;;;4.81;100.00
25080;BME280;13071;48.868;9.996;2023-11-22T00:32:14;96766.66;;;4.69;100.00
25080;BME280;13071;48.868;9.996;2023-11-22T00:34:40;96758.06;;;4.72;100.00
25080;BME280;13071;48.868;9.996;2023-11-22T00:37:07;96765.34;;;4.66;100.00
25080;BME280;13071;48.868;9.996;2023-11-22T00:39:33;96767.03;;;4.62;100.00
25080;BME280;13071;48.868;9.996;2023-11-22T00:42:00;96765.81;;;4.73;100.00
25080;BME280;13071;48.868;9.996;2023-11-22T00:44:28;96768.50;;;4.50;100.00
25080;BME280;13071;48.868;9.996;2023-11-22T00:46:54;96765.03;;;4.49;100.00
25080;BME280;13071;48.868;9.996;2023-11-22T00:49:22;96766.06;;;4.53;100.00
25080;BME280;13071;48.868;9.996;2023-11-22T00:51:49;96769.13;;;4.65;100.00
25080;BME280;13071;48.868;9.996;2023-11-22T00:54:17;96777.34;;;4.50;100.00
25080;BME280;13071;48.868;9.996;2023-11-22T00:56:45;96782.84;;;4.40;100.00
25080;BME280;13071;48.868;9.996;2023-11-22T00:59:12;96798.28;;;4.24;100.00
25080;BME280;13071;48.868;9.996;2023-11-22T01:01:40;96793.59;;;4.35;100.00
25080;BME280;13071;48.868;9.996;2023-11-22T01:04:07;96802.84;;;4.48;100.00
25080;BME280;13071;48.868;9.996;2023-11-22T01:06:34;96802.19;;;4.37;100.00
25080;BME280;13071;48.868;9.996;2023-11-22T01:09:02;96821.31;;;4.49;100.00
25080;BME280;13071;48.868;9.996;2023-11-22T01:11:29;96807.50;;;4.61;100.00
25080;BME280;13071;48.868;9.996;2023-11-22T01:13:55;96809.19;;;4.33;100.00
25080;BME280;13071;48.868;9.996;2023-11-22T01:16:22;96814.78;;;4.37;100.00
25080;BME280;13071;48.868;9.996;2023-11-22T01:18:50;96811.00;;;4.38;100.00
25080;BME280;13071;48.868;9.996;2023-11-22T01:21:18;96821.09;;;4.22;100.00
25080;BME280;13071;48.868;9.996;2023-11-22T01:23:44;96824.84;;;4.21;100.00
25080;BME280;13071;48.868;9.996;2023-11-22T01:26:12;96826.34;;;4.08;100.00
25080;BME280;13071;48.868;9.996;2023-11-22T01:28:38;96820.88;;;4.18;100.00
25080;BME280;13071;48.868;9.996;2023-11-22T01:31:11;96816.53;;;4.22;100.00
25080;BME280;13071;48.868;9.996;2023-11-22T01:33:37;96819.91;;;4.33;100.00
25080;BME280;13071;48.868;9.996;2023-11-22T01:36:06;96816.50;;;4.27;100.00
25080;BME280;13071;48.868;9.996;2023-11-22T01:38:32;96826.03;;;4.10;100.00
25080;BME280;13071;48.868;9.996;2023-11-22T01:40:59;96828.94;;;3.89;100.00
25080;BME280;13071;48.868;9.996;2023-11-22T01:43:26;96833.31;;;3.75;100.00
25080;BME280;13071;48.868;9.996;2023-11-22T01:45:54;96821.25;;;3.49;100.00
25080;BME280;13071;48.868;9.996;2023-11-22T01:48:21;96827.91;;;3.52;100.00
25080;BME280;13071;48.868;9.996;2023-11-22T01:50:48;96830.53;;;3.57;100.00
25080;BME280;13071;48.868;9.996;2023-11-22T01:53:16;96839.03;;;3.30;100.00
25080;BME280;13071;48.868;9.996;2023-11-22T01:55:43;96841.50;;;3.16;100.00
25080;BME280;13071;48.868;9.996;2023-11-22T01:58:11;96834.56;;;3.20;100.00
25080;BME280;13071;48.868;9.996;2023-11-22T02:00:43;96839.69;;;3.12;100.00
25080;BME280;13071;48.868;9.996;2023-11-22T02:03:10;96842.84;;;3.19;100.00
25080;BME280;13071;48.868;9.996;2023-11-22T02:05:40;96842.56;;;3.25;100.00
25080;BME280;13071;48.868;9.996;2023-11-22T02:08:08;96835.84;;;3.28;100.00
25080;BME280;13071;48.868;9.996;2023-11-22T02:10:37;96837.47;;;3.24;100.00
25080;BME280;13071;48.868;9.996;2023-11-22T02:13:03;96833.16;;;3.28;100.00
25080;BME280;13071;48.868;9.996;2023-11-22T02:15:32;96844.97;;;3.22;100.00
25080;BME280;13071;48.868;9.996;2023-11-22T02:17:59;96844.69;;;3.23;100.00
25080;BME280;13071;48.868;9.996;2023-11-22T02:20:26;96851.94;;;3.18;100.00
25080;BME280;13071;48.868;9.996;2023-11-22T02:22:53;96851.22;;;3.02;100.00
25080;BME280;13071;48.868;9.996;2023-11-22T02:25:21;96860.41;;;2.91;100.00
25080;BME280;13071;48.868;9.996;2023-11-22T02:27:47;96863.28;;;2.99;100.00
25080;BME280;13071;48.868;9.996;2023-11-22T02:30:14;96857.38;;;3.02;100.00
25080;BME280;13071;48.868;9.996;2023-11-22T02:32:41;96861.66;;;3.03;100.00
25080;BME280;13071;48.868;9.996;2023-11-22T02:35:09;96868.09;;;2.97;100.00
25080;BME280;13071;48.868;9.996;2023-11-22T02:37:35;96870.06;;;3.26;100.00
25080;BME280;13071;48.868;9.996;2023-11-22T02:40:06;96871.69;;;3.27;100.00
25080;BME280;13071;48.868;9.996;2023-11-22T02:42:37;96879.53;;;3.13;100.00
25080;BME280;13071;48.868;9.996;2023-11-22T02:45:04;96885.63;;;3.24;100.00
25080;BME280;13071;48.868;9.996;2023-11-22T02:47:32;96880.13;;;3.05;97.55
25080;BME280;13071;48.868;9.996;2023-11-22T02:50:00;96895.22;;;2.76;98.29
25080;BME280;13071;48.868;9.996;2023-11-22T02:52:27;96903.97;;;2.86;96.70
25080;BME280;13071;48.868;9.996;2023-11-22T02:54:54;96904.31;;;2.75;97.88
25080;BME280;13071;48.868;9.996;2023-11-22T02:57:20;96912.28;;;2.85;99.09
25080;BME280;13071;48.868;9.996;2023-11-22T02:59:48;96904.09;;;2.61;97.77
25080;BME280;13071;48.868;9.996;2023-11-22T03:02:15;96907.06;;;2.44;96.89
25080;BME280;13071;48.868;9.996;2023-11-22T03:04:42;96906.53;;;2.32;97.27
25080;BME280;13071;48.868;9.996;2023-11-22T03:07:09;96910.31;;;2.31;97.24
25080;BME280;13071;48.868;9.996;2023-11-22T03:09:36;96907.59;;;2.46;97.22
25080;BME280;13071;48.868;9.996;2023-11-22T03:12:03;96903.78;;;2.63;95.81
25080;BME280;13071;48.868;9.996;2023-11-22T03:14:30;96911.03;;;2.47;97.07
25080;BME280;13071;48.868;9.996;2023-11-22T03:16:58;96908.69;;;2.35;98.27
25080;BME280;13071;48.868;9.996;2023-11-22T03:19:24;96910.50;;;2.55;97.39
25080;BME280;13071;48.868;9.996;2023-11-22T03:21:51;96905.97;;;2.50;98.04
25080;BME280;13071;48.868;9.996;2023-11-22T03:24:17;96910.53;;;2.45;96.55
25080;BME280;13071;48.868;9.996;2023-11-22T03:26:44;96909.22;;;2.32;97.14
25080;BME280;13071;48.868;9.996;2023-11-22T03:29:11;96916.44;;;2.37;96.83
25080;BME280;13071;48.868;9.996;2023-11-22T03:31:37;96923.09;;;2.39;95.39
25080;BME280;13071;48.868;9.996;2023-11-22T03:34:06;96924.41;;;2.47;96.35
25080;BME280;13071;48.868;9.996;2023-11-22T03:36:32;96927.41;;;2.25;96.15
25080;BME280;13071;48.868;9.996;2023-11-22T03:38:59;96926.84;;;2.18;95.82
25080;BME280;13071;48.868;9.996;2023-11-22T03:41:26;96929.50;;;2.38;95.89
25080;BME280;13071;48.868;9.996;2023-11-22T03:43:52;96942.09;;;2.07;95.80
25080;BME280;13071;48.868;9.996;2023-11-22T03:46:19;96944.50;;;2.19;95.71
25080;BME280;13071;48.868;9.996;2023-11-22T03:48:46;96958.91;;;1.98;97.29
25080;BME280;13071;48.868;9.996;2023-11-22T03:51:13;96961.84;;;2.11;97.37
25080;BME280;13071;48.868;9.996;2023-11-22T03:53:41;96972.22;;;1.83;99.47
25080;BME280;13071;48.868;9.996;2023-11-22T03:56:08;96979.75;;;1.91;99.32
25080;BME280;13071;48.868;9.996;2023-11-22T03:58:34;96983.72;;;1.88;99.94
25080;BME280;13071;48.868;9.996;2023-11-22T04:01:01;96990.94;;;2.03;99.07
25080;BME280;13071;48.868;9.996;2023-11-22T04:03:28;96993.59;;;1.83;99.78
25080;BME280;13071;48.868;9.996;2023-11-22T04:05:55;96996.56;;;1.91;99.58
25080;BME280;13071;48.868;9.996;2023-11-22T04:08:23;96996.00;;;1.89;99.71
25080;BME280;13071;48.868;9.996;2023-11-22T04:10:50;97001.59;;;1.83;99.83
25080;BME280;13071;48.868;9.996;2023-11-22T04:13:17;97008.84;;;1.97;100.00
25080;BME280;13071;48.868;9.996;2023-11-22T04:15:43;97016.84;;;1.82;99.66
25080;BME280;13071;48.868;9.996;2023-11-22T04:18:10;97012.59;;;2.01;99.41
25080;BME280;13071;48.868;9.996;2023-11-22T04:20:37;97028.28;;;1.88;99.45
25080;BME280;13071;48.868;9.996;2023-11-22T04:23:03;97014.16;;;1.82;100.00
25080;BME280;13071;48.868;9.996;2023-11-22T04:25:31;97025.41;;;2.09;99.31
25080;BME280;13071;48.868;9.996;2023-11-22T04:27:59;97021.13;;;2.18;99.51
25080;BME280;13071;48.868;9.996;2023-11-22T04:30:26;97015.28;;;2.32;97.17
25080;BME280;13071;48.868;9.996;2023-11-22T04:32:52;97011.25;;;2.39;97.10
25080;BME280;13071;48.868;9.996;2023-11-22T04:35:19;97009.13;;;2.31;97.02
25080;BME280;13071;48.868;9.996;2023-11-22T04:37:45;97022.19;;;2.38;96.59
25080;BME280;13071;48.868;9.996;2023-11-22T04:40:13;97029.13;;;2.24;95.50
25080;BME280;13071;48.868;9.996;2023-11-22T04:42:42;97034.47;;;2.24;96.59
25080;BME280;13071;48.868;9.996;2023-11-22T04:45:09;97031.81;;;2.34;96.15
25080;BME280;13071;48.868;9.996;2023-11-22T04:47:36;97030.50;;;2.41;95.17
25080;BME280;13071;48.868;9.996;2023-11-22T04:50:02;97045.72;;;2.31;95.23
25080;BME280;13071;48.868;9.996;2023-11-22T04:52:30;97057.47;;;2.30;96.01
25080;BME280;13071;48.868;9.996;2023-11-22T04:54:56;97052.91;;;2.20;97.05
25080;BME280;13071;48.868;9.996;2023-11-22T04:57:23;97053.44;;;2.37;96.92
25080;BME280;13071;48.868;9.996;2023-11-22T04:59:51;97056.91;;;2.48;96.16
25080;BME280;13071;48.868;9.996;2023-11-22T05:02:18;97057.47;;;2.30;96.27
25080;BME280;13071;48.868;9.996;2023-11-22T05:04:45;97065.47;;;2.20;97.60
25080;BME280;13071;48.868;9.996;2023-11-22T05:07:14;97059.31;;;2.39;97.86
25080;BME280;13071;48.868;9.996;2023-11-22T05:09:40;97070.00;;;2.29;97.80
25080;BME280;13071;48.868;9.996;2023-11-22T05:12:08;97057.47;;;2.45;97.23
25080;BME280;13071;48.868;9.996;2023-11-22T05:14:35;97055.31;;;2.57;97.04
25080;BME280;13071;48.868;9.996;2023-11-22T05:17:03;97072.44;;;2.66;94.78
25080;BME280;13071;48.868;9.996;2023-11-22T05:19:30;97068.41;;;2.64;94.20
25080;BME280;13071;48.868;9.996;2023-11-22T05:21:57;97072.69;;;2.54;94.63
25080;BME280;13071;48.868;9.996;2023-11-22T05:24:24;97067.09;;;2.56;95.05
25080;BME280;13071;48.868;9.996;2023-11-22T05:26:50;97074.31;;;2.55;94.77
25080;BME280;13071;48.868;9.996;2023-11-22T05:29:17;97080.72;;;2.65;95.28
25080;BME280;13071;48.868;9.996;2023-11-22T05:31:44;97077.78;;;2.46;96.12
25080;BME280;13071;48.868;9.996;2023-11-22T05:34:12;97078.84;;;2.45;97.10
25080;BME280;13071;48.868;9.996;2023-11-22T05:36:39;97075.09;;;2.46;96.49
25080;BME280;13071;48.868;9.996;2023-11-22T05:39:06;97082.56;;;2.29;98.00
25080;BME280;13071;48.868;9.996;2023-11-22T05:41:34;97086.03;;;2.34;97.64
25080;BME280;13071;48.868;9.996;2023-11-22T05:44:01;97083.38;;;2.54;96.42
25080;BME280;13071;48.868;9.996;2023-11-22T05:46:28;97080.44;;;2.31;97.72
25080;BME280;13071;48.868;9.996;2023-11-22T05:48:54;97082.03;;;2.47;96.76
25080;BME280;13071;48.868;9.996;2023-11-22T05:51:22;97090.28;;;2.10;99.47
25080;BME280;13071;48.868;9.996;2023-11-22T05:53:49;97090.53;;;2.13;99.43
25080;BME280;13071;48.868;9.996;2023-11-22T05:56:16;97102.84;;;2.20;94.29
25080;BME280;13071;48.868;9.996;2023-11-22T05:58:43;97107.34;;;2.04;91.00
25080;BME280;13071;48.868;9.996;2023-11-22T06:01:09;97113.75;;;2.03;89.94
25080;BME280;13071;48.868;9.996;2023-11-22T06:03:37;97114.28;;;2.00;87.77
25080;BME280;13071;48.868;9.996;2023-11-22T06:06:04;97124.41;;;1.93;89.00
25080;BME280;13071;48.868;9.996;2023-11-22T06:08:33;97124.94;;;1.90;88.79
25080;BME280;13071;48.868;9.996;2023-11-22T06:11:00;97135.38;;;2.01;87.59
25080;BME280;13071;48.868;9.996;2023-11-22T06:13:27;97136.41;;;1.85;88.52
25080;BME280;13071;48.868;9.996;2023-11-22T06:15:53;97145.19;;;1.81;89.54
25080;BME280;13071;48.868;9.996;2023-11-22T06:18:20;97145.72;;;1.83;90.59
25080;BME280;13071;48.868;9.996;2023-11-22T06:20:47;97147.09;;;1.90;91.08
25080;BME280;13071;48.868;9.996;2023-11-22T06:23:13;97155.63;;;1.82;92.80
25080;BME280;13071;48.868;9.996;2023-11-22T06:25:41;97157.22;;;1.93;93.96
25080;BME280;13071;48.868;9.996;2023-11-22T06:28:09;97167.09;;;1.88;95.45
25080;BME280;13071;48.868;9.996;2023-11-22T06:30:35;97165.56;;;2.02;95.98
25080;BME280;13071;48.868;9.996;2023-11-22T06:33:02;97169.75;;;1.88;96.56
25080;BME280;13071;48.868;9.996;2023-11-22T06:35:29;97177.22;;;1.81;97.50
25080;BME280;13071;48.868;9.996;2023-11-22T06:37:55;97180.97;;;1.90;98.06
25080;BME280;13071;48.868;9.996;2023-11-22T06:40:22;97180.19;;;1.94;96.54
25080;BME280;13071;48.868;9.996;2023-11-22T06:42:50;97181.19;;;1.78;95.05
25080;BME280;13071;48.868;9.996;2023-11-22T06:45:16;97197.19;;;1.78;95.40
25080;BME280;13071;48.868;9.996;2023-11-22T06:47:43;97192.28;;;2.07;94.74
25080;BME280;13071;48.868;9.996;2023-11-22T06:50:10;97203.22;;;2.05;94.12
25080;BME280;13071;48.868;9.996;2023-11-22T06:52:37;97192.41;;;1.75;92.89
25080;BME280;13071;48.868;9.996;2023-11-22T06:55:04;97193.84;;;2.08;91.92
25080;BME280;13071;48.868;9.996;2023-11-22T06:57:33;97198.34;;;1.92;91.74
25080;BME280;13071;48.868;9.996;2023-11-22T07:00:02;97197.84;;;2.00;91.91
25080;BME280;13071;48.868;9.996;2023-11-22T07:02:30;97198.75;;;1.69;91.11
25080;BME280;13071;48.868;9.996;2023-11-22T07:04:56;97201.19;;;1.70;91.08
25080;BME280;13071;48.868;9.996;2023-11-22T07:07:24;97209.19;;;1.70;90.65
25080;BME280;13071;48.868;9.996;2023-11-22T07:09:51;97204.13;;;1.74;90.80
25080;BME280;13071;48.868;9.996;2023-11-22T07:12:17;97203.84;;;1.70;90.38
25080;BME280;13071;48.868;9.996;2023-11-22T07:14:44;97199.47;;;1.54;88.59
25080;BME280;13071;48.868;9.996;2023-11-22T07:17:12;97197.78;;;1.85;86.57
25080;BME280;13071;48.868;9.996;2023-11-22T07:19:39;97202.66;;;2.03;85.22
25080;BME280;13071;48.868;9.996;2023-11-22T07:22:12;97208.28;;;2.07;84.70
25080;BME280;13071;48.868;9.996;2023-11-22T07:24:42;97213.09;;;2.10;84.87
25080;BME280;13071;48.868;9.996;2023-11-22T07:27:10;97214.91;;;1.94;85.57
25080;BME280;13071;48.868;9.996;2023-11-22T07:29:37;97229.06;;;1.95;86.66
25080;BME280;13071;48.868;9.996;2023-11-22T07:32:05;97239.81;;;2.10;85.78
25080;BME280;13071;48.868;9.996;2023-11-22T07:34:33;97253.34;;;1.98;85.51
25080;BME280;13071;48.868;9.996;2023-11-22T07:37:00;97247.84;;;2.15;84.32
25080;BME280;13071;48.868;9.996;2023-11-22T07:39:27;97263.75;;;1.95;85.39
25080;BME280;13071;48.868;9.996;2023-11-22T07:41:54;97256.59;;;2.05;85.68
25080;BME280;13071;48.868;9.996;2023-11-22T07:44:20;97253.19;;;2.20;85.51
25080;BME280;13071;48.868;9.996;2023-11-22T07:46:47;97256.69;;;2.21;85.70
25080;BME280;13071;48.868;9.996;2023-11-22T07:49:14;97258.81;;;2.24;85.29
25080;BME280;13071;48.868;9.996;2023-11-22T07:51:43;97261.19;;;2.15;85.68
25080;BME280;13071;48.868;9.996;2023-11-22T07:54:10;97270.44;;;1.92;86.63
25080;BME280;13071;48.868;9.996;2023-11-22T07:56:40;97266.75;;;2.08;86.39
25080;BME280;13071;48.868;9.996;2023-11-22T07:59:08;97277.69;;;2.02;87.72
25080;BME280;13071;48.868;9.996;2023-11-22T08:01:35;97285.72;;;1.65;91.33
25080;BME280;13071;48.868;9.996;2023-11-22T08:04:03;97283.47;;;1.89;93.58
25080;BME280;13071;48.868;9.996;2023-11-22T08:06:30;97299.31;;;1.63;92.54
25080;BME280;13071;48.868;9.996;2023-11-22T08:09:00;97293.50;;;1.35;95.43
25080;BME280;13071;48.868;9.996;2023-11-22T08:11:26;97299.66;;;1.35;96.24
25080;BME280;13071;48.868;9.996;2023-11-22T08:13:53;97299.22;;;1.48;96.84
25080;BME280;13071;48.868;9.996;2023-11-22T08:16:23;97299.56;;;1.25;97.66
25080;BME280;13071;48.868;9.996;2023-11-22T08:18:50;97300.13;;;1.27;98.07
25080;BME280;13071;48.868;9.996;2023-11-22T08:21:16;97303.69;;;1.38;98.67
25080;BME280;13071;48.868;9.996;2023-11-22T08:23:43;97303.41;;;1.39;98.71
25080;BME280;13071;48.868;9.996;2023-11-22T08:26:13;97303.22;;;1.19;98.81
25080;BME280;13071;48.868;9.996;2023-11-22T08:28:40;97305.69;;;1.25;98.30
25080;BME280;13071;48.868;9.996;2023-11-22T08:31:07;97302.88;;;1.37;97.99
25080;BME280;13071;48.868;9.996;2023-11-22T08:33:34;97307.75;;;1.13;98.41
25080;BME280;13071;48.868;9.996;2023-11-22T08:36:01;97311.94;;;1.09;98.30
25080;BME280;13071;48.868;9.996;2023-11-22T08:38:29;97309.31;;;1.14;97.85
25080;BME280;13071;48.868;9.996;2023-11-22T08:40:58;97315.84;;;1.28;98.01
25080;BME280;13071;48.868;9.996;2023-11-22T08:43:26;97312.03;;;1.19;97.52
25080;BME280;13071;48.868;9.996;2023-11-22T08:45:53;97306.00;;;1.29;97.59
25080;BME280;13071;48.868;9.996;2023-11-22T08:48:20;97309.88;;;1.48;96.16
25080;BME280;13071;48.868;9.996;2023-11-22T08:50:47;97313.94;;;1.56;96.26
25080;BME280;13071;48.868;9.996;2023-11-22T08:53:14;97305.41;;;1.22;97.45
25080;BME280;13071;48.868;9.996;2023-11-22T08:55:43;97304.69;;;1.68;95.68
25080;BME280;13071;48.868;9.996;2023-11-22T08:58:10;97305.81;;;1.72;95.33
25080;BME280;13071;48.868;9.996;2023-11-22T09:00:38;97299.94;;;1.76;94.26
25080;BME280;13071;48.868;9.996;2023-11-22T09:03:06;97305.09;;;1.50;95.51
25080;BME280;13071;48.868;9.996;2023-11-22T09:05:33;97305.81;;;1.41;95.21
25080;BME280;13071;48.868;9.996;2023-11-22T09:08:00;97312.38;;;1.60;95.51
25080;BME280;13071;48.868;9.996;2023-11-22T09:10:26;97310.66;;;1.81;93.83
25080;BME280;13071;48.868;9.996;2023-11-22T09:12:53;97309.16;;;1.95;93.37
25080;BME280;13071;48.868;9.996;2023-11-22T09:15:20;97309.97;;;2.00;92.85
25080;BME280;13071;48.868;9.996;2023-11-22T09:17:52;97307.97;;;1.76;91.92
25080;BME280;13071;48.868;9.996;2023-11-22T09:20:20;97322.63;;;1.78;91.48
25080;BME280;13071;48.868;9.996;2023-11-22T09:22:47;97315.41;;;1.37;93.78
25080;BME280;13071;48.868;9.996;2023-11-22T09:25:14;97307.56;;;1.25;94.13
25080;BME280;13071;48.868;9.996;2023-11-22T09:27:42;97318.31;;;1.67;93.23
25080;BME280;13071;48.868;9.996;2023-11-22T09:30:12;97314.28;;;1.64;91.67
25080;BME280;13071;48.868;9.996;2023-11-22T09:32:44;97318.94;;;1.84;90.31
25080;BME280;13071;48.868;9.996;2023-11-22T09:35:14;97325.63;;;1.82;90.78
25080;BME280;13071;48.868;9.996;2023-11-22T09:37:41;97330.81;;;1.61;92.04
25080;BME280;13071;48.868;9.996;2023-11-22T09:40:10;97326.50;;;1.55;91.74
25080;BME280;13071;48.868;9.996;2023-11-22T09:42:38;97337.19;;;1.60;91.47
25080;BME280;13071;48.868;9.996;2023-11-22T09:45:06;97338.03;;;1.66;91.20
25080;BME280;13071;48.868;9.996;2023-11-22T09:47:33;97337.69;;;1.94;91.30
25080;BME280;13071;48.868;9.996;2023-11-22T09:50:01;97327.94;;;1.73;91.43
25080;BME280;13071;48.868;9.996;2023-11-22T09:52:33;97334.03;;;2.05;91.44
25080;BME280;13071;48.868;9.996;2023-11-22T09:55:01;97337.88;;;2.25;90.48
25080;BME280;13071;48.868;9.996;2023-11-22T09:57:30;97338.66;;;2.20;90.46
25080;BME280;13071;48.868;9.996;2023-11-22T09:59:58;97338.19;;;2.33;90.05
25080;BME280;13071;48.868;9.996;2023-11-22T10:02:27;97347.97;;;2.17;89.25
25080;BME280;13071;48.868;9.996;2023-11-22T10:04:54;97352.19;;;2.08;90.26
25080;BME280;13071;48.868;9.996;2023-11-22T10:07:21;97346.47;;;2.27;90.45
25080;BME280;13071;48.868;9.996;2023-11-22T10:09:50;97343.00;;;2.31;88.74
25080;BME280;13071;48.868;9.996;2023-11-22T10:12:19;97351.56;;;2.38;88.60
25080;BME280;13071;48.868;9.996;2023-11-22T10:14:46;97357.88;;;2.22;89.93
25080;BME280;13071;48.868;9.996;2023-11-22T10:17:13;97363.72;;;2.61;85.79
25080;BME280;13071;48.868;9.996;2023-11-22T10:19:42;97361.22;;;1.97;88.49
25080;BME280;13071;48.868;9.996;2023-11-22T10:22:08;97364.16;;;1.64;89.62
25080;BME280;13071;48.868;9.996;2023-11-22T10:24:35;97367.25;;;1.83;89.97
25080;BME280;13071;48.868;9.996;2023-11-22T10:27:04;97374.38;;;2.09;89.12
25080;BME280;13071;48.868;9.996;2023-11-22T10:29:31;97379.25;;;1.80;87.52
25080;BME280;13071;48.868;9.996;2023-11-22T10:31:59;97376.47;;;2.02;86.85
25080;BME280;13071;48.868;9.996;2023-11-22T10:34:26;97368.88;;;1.89;87.57
25080;BME280;13071;48.868;9.996;2023-11-22T10:36:55;97379.00;;;2.24;86.56
25080;BME280;13071;48.868;9.996;2023-11-22T10:39:22;97364.69;;;2.40;85.97
25080;BME280;13071;48.868;9.996;2023-11-22T10:41:51;97370.28;;;2.38;88.06
25080;BME280;13071;48.868;9.996;2023-11-22T10:44:20;97376.28;;;2.13;87.86
25080;BME280;13071;48.868;9.996;2023-11-22T10:46:47;97380.16;;;1.96;88.13
25080;BME280;13071;48.868;9.996;2023-11-22T10:49:16;97379.66;;;1.99;87.93
25080;BME280;13071;48.868;9.996;2023-11-22T10:51:44;97381.31;;;2.10;88.75
25080;BME280;13071;48.868;9.996;2023-11-22T10:54:14;97376.38;;;1.87;87.61
25080;BME280;13071;48.868;9.996;2023-11-22T10:56:43;97377.13;;;1.82;88.17
25080;BME280;13071;48.868;9.996;2023-11-22T10:59:13;97381.63;;;1.77;88.95
25080;BME280;13071;48.868;9.996;2023-11-22T11:01:44;97381.94;;;1.85;87.75
25080;BME280;13071;48.868;9.996;2023-11-22T11:04:19;97386.09;;;2.08;88.50
25080;BME280;13071;48.868;9.996;2023-11-22T11:06:51;97389.97;;;1.85;88.00
25080;BME280;13071;48.868;9.996;2023-11-22T11:09:18;97383.56;;;2.28;88.30
25080;BME280;13071;48.868;9.996;2023-11-22T11:11:47;97385.72;;;2.26;88.28
25080;BME280;13071;48.868;9.996;2023-11-22T11:14:14;97396.25;;;2.06;88.01
25080;BME280;13071;48.868;9.996;2023-11-22T11:16:44;97391.88;;;2.27;88.11
25080;BME280;13071;48.868;9.996;2023-11-22T11:19:15;97381.97;;;2.32;88.15
25080;BME280;13071;48.868;9.996;2023-11-22T11:21:43;97380.50;;;2.51;86.84
25080;BME280;13071;48.868;9.996;2023-11-22T11:24:10;97386.75;;;2.25;84.26
25080;BME280;13071;48.868;9.996;2023-11-22T11:26:37;97381.13;;;2.16;85.14
25080;BME280;13071;48.868;9.996;2023-11-22T11:29:03;97374.69;;;2.17;84.07
25080;BME280;13071;48.868;9.996;2023-11-22T11:31:32;97369.34;;;2.17;85.09
25080;BME280;13071;48.868;9.996;2023-11-22T11:34:05;97365.75;;;1.97;83.76
25080;BME280;13071;48.868;9.996;2023-11-22T11:36:32;97366.47;;;1.82;84.81
25080;BME280;13071;48.868;9.996;2023-11-22T11:39:00;97367.50;;;1.81;86.14
25080;BME280;13071;48.868;9.996;2023-11-22T11:41:31;97366.88;;;1.69;86.33
25080;BME280;13071;48.868;9.996;2023-11-22T11:43:58;97373.78;;;1.65;87.00
25080;BME280;13071;48.868;9.996;2023-11-22T11:46:25;97384.22;;;2.03;85.98
25080;BME280;13071;48.868;9.996;2023-11-22T11:48:53;97386.00;;;1.93;83.97
25080;BME280;13071;48.868;9.996;2023-11-22T11:51:23;97391.09;;;1.94;86.06
25080;BME280;13071;48.868;9.996;2023-11-22T11:53:51;97400.63;;;1.85;85.07
25080;BME280;13071;48.868;9.996;2023-11-22T11:56:17;97395.13;;;1.97;86.01
25080;BME280;13071;48.868;9.996;2023-11-22T11:58:45;97396.44;;;1.94;86.67
25080;BME280;13071;48.868;9.996;2023-11-22T12:01:13;97411.44;;;2.00;85.13
25080;BME280;13071;48.868;9.996;2023-11-22T12:03:40;97416.66;;;1.85;84.48
25080;BME280;13071;48.868;9.996;2023-11-22T12:06:07;97419.41;;;1.95;84.24
25080;BME280;13071;48.868;9.996;2023-11-22T12:08:35;97425.59;;;1.69;86.09
25080;BME280;13071;48.868;9.996;2023-11-22T12:11:02;97421.56;;;1.66;86.55
25080;BME280;13071;48.868;9.996;2023-11-22T12:13:32;97422.19;;;1.79;87.68
25080;BME280;13071;48.868;9.996;2023-11-22T12:15:58;97424.56;;;1.75;87.26
25080;BME280;13071;48.868;9.996;2023-11-22T12:18:28;97428.25;;;1.69;88.42
25080;BME280;13071;48.868;9.996;2023-11-22T12:20:55;97434.06;;;1.61;88.27
25080;BME280;13071;48.868;9.996;2023-11-22T12:23:23;97441.44;;;1.54;88.55
25080;BME280;13071;48.868;9.996;2023-11-22T12:25:55;97457.06;;;1.67;86.84
25080;BME280;13071;48.868;9.996;2023-11-22T12:28:23;97462.09;;;1.63;86.18
25080;BME280;13071;48.868;9.996;2023-11-22T12:30:50;97453.06;;;1.69;86.59
25080;BME280;13071;48.868;9.996;2023-11-22T12:33:17;97455.88;;;1.85;86.38
25080;BME280;13071;48.868;9.996;2023-11-22T12:35:45;97459.41;;;1.63;88.02
25080;BME280;13071;48.868;9.996;2023-11-22T12:38:12;97457.56;;;1.64;87.26
25080;BME280;13071;48.868;9.996;2023-11-22T12:40:43;97453.50;;;1.56;86.86
25080;BME280;13071;48.868;9.996;2023-11-22T12:43:12;97453.50;;;1.56;86.46
25080;BME280;13071;48.868;9.996;2023-11-22T12:45:39;97443.22;;;1.70;86.91
25080;BME280;13071;48.868;9.996;2023-11-22T12:48:20;97441.28;;;1.92;85.98
25080;BME280;13071;48.868;9.996;2023-11-22T12:50:48;97437.28;;;1.95;83.54
25080;BME280;13071;48.868;9.996;2023-11-22T12:53:15;97443.38;;;1.90;83.21
25080;BME280;13071;48.868;9.996;2023-11-22T12:55:43;97436.38;;;1.84;83.85
25080;BME280;13071;48.868;9.996;2023-11-22T12:58:12;97431.34;;;1.56;84.82
25080;BME280;13071;48.868;9.996;2023-11-22T13:00:39;97419.97;;;1.65;84.20
25080;BME280;13071;48.868;9.996;2023-11-22T13:03:06;97427.38;;;1.90;84.24
25080;BME280;13071;48.868;9.996;2023-11-22T13:05:33;97428.19;;;1.91;83.49
25080;BME280;13071;48.868;9.996;2023-11-22T13:07:59;97426.56;;;1.90;83.98